Terminal Aerodrome Forecast
Issued by NWS

Home | Current Version | Previous Version | Text Only | Print | Product List | Glossary On
Versions: 1 2 3 4 5 6 7 8 9 10 11 12
000
FTAK31 PAJN 041154
TAFASI
TAF
PASI 041154Z 0412/0512 VRB03KT P6SM SCT060 BKN100
     FM041400 VRB03KT P6SM OVC060
     FM041800 16010KT P6SM VCSH SCT020 OVC050
      TEMPO 0420/0424 -RA OVC035
     FM050000 17010KT P6SM -RA OVC040
     FM050300 12010G25KT 4SM RA SCT015 OVC030=

USA.gov is the U.S. government's official web portal to all federal, state and local government web resources and services.